Oosterdam — PBKH — position and weather

sailwx.info

Track history (hours):
 
Tides and Currents Weather Stations Pressure Air Temp Water Temp Dewpoint Dewpoint Depression Visibility Wind Speed Wind Dir Waves Ship Positions

Oosterdam

Operator: Holland America Line

Last reported at 2017-Dec-11 08:00 UTC. Time now 2017-Dec-13 03:37 UTC.
Position N 21°18' W 157°48'.

MMSI: 245417000.

Wind from 310 at 2 knots

Barometer 1014.0 mb
Air temperature 22.5 ° C
Visibility: greater than 10.8 NM
Dewpoint 18.9 ° C

Date/timePositionNaut miles runAvg speedWind from/ knotsBaromVisibWave heightAir tempDewpointWater temp
2017-Dec-11 08:00N 21°18' W 157°48'46 2.2 310 / 21014.010.8 22.518.9
2017-Dec-10 11:00N 20°54' W 157°06'   150 / 81016.010.8 23.0 25.0
2017-Dec-04 06:13N 29°58' W 122°25'418.5
2017-Dec-04 05:59N 29°59' W 122°21'132 9.8
2017-Dec-03 16:32N 30°42' W 119°56'016.2
2017-Dec-03 16:30N 30°42' W 119°55'3215.8
2017-Dec-03 14:29N 30°53' W 119°21'2115.7
2017-Dec-03 13:09N 30°59' W 118°57'215.2
2017-Dec-03 13:00N 31°00' W 118°55'815.5
2017-Dec-03 12:30N 31°02' W 118°46'815.6
2017-Dec-03 12:00N 31°05' W 118°38'815.7
2017-Dec-03 11:30N 31°10' W 118°31'2416.3
2017-Dec-03 10:01N 31°30' W 118°14'2215.8
2017-Dec-03 08:38N 31°47' W 117°58'516.0
2017-Dec-03 08:20N 31°51' W 117°55'816.1
2017-Dec-03 07:52N 31°57' W 117°50'1116.0
2017-Dec-03 07:09N 32°06' W 117°42'215.6
2017-Dec-03 07:01N 32°08' W 117°40'815.5
2017-Dec-03 06:31N 32°15' W 117°35'714.7
2017-Dec-03 06:00N 32°20' W 117°29'714.6
2017-Dec-03 05:31N 32°26' W 117°24'815.0
2017-Dec-03 05:01N 32°32' W 117°19'815.5
2017-Dec-03 04:30N 32°38' W 117°13'5 8.6
2017-Dec-03 03:54N 32°43' W 117°11'1 0.0
2017-Dec-02 13:55N 32°43' W 117°11'3 6.9
2017-Dec-02 13:29N 32°42' W 117°14'511.4
2017-Dec-02 13:00N 32°36' W 117°13'1016.8
2017-Dec-02 12:24N 32°27' W 117°11'819.5
2017-Dec-02 12:00N 32°19' W 117°08'918.0
2017-Dec-02 11:30N 32°10' W 117°05'1017.4
2017-Dec-02 10:57N 32°01' W 117°03'918.0
2017-Dec-02 10:28N 31°53' W 116°60'918.6
2017-Dec-02 09:58N 31°44' W 116°57'1818.8
2017-Dec-02 09:00N 31°26' W 116°52'18918.9
2017-Dec-01 23:00N 28°24' W 115°54'1313.1 320 / 131014.0 5.4 19.0 20.0
2017-Dec-01 22:00N 28°12' W 115°48'   310 / 141014.0 5.4 19.0 20.0
Track history (hours):
 
Tides and Currents Weather Stations Pressure Air Temp Water Temp Dewpoint Dewpoint Depression Visibility Wind Speed Wind Dir Waves Ship Positions

Oosterdam

Operator: Holland America Line

Last reported at 2017-Dec-11 08:00 UTC. Time now 2017-Dec-13 03:37 UTC.
Position N 21°18' W 157°48'.

MMSI: 245417000.

Wind from 310 at 2 knots

Barometer 1014.0 mb
Air temperature 22.5 ° C
Visibility: greater than 10.8 NM
Dewpoint 18.9 ° C

Date/timePositionNaut miles runAvg speedWind from/ knotsBaromVisibWave heightAir tempDewpointWater temp
2017-Dec-11 08:00N 21°18' W 157°48'46 2.2 310 / 21014.010.8 22.518.9
2017-Dec-10 11:00N 20°54' W 157°06'   150 / 81016.010.8 23.0 25.0
2017-Dec-04 06:13N 29°58' W 122°25'418.5
2017-Dec-04 05:59N 29°59' W 122°21'132 9.8
2017-Dec-03 16:32N 30°42' W 119°56'016.2
2017-Dec-03 16:30N 30°42' W 119°55'3215.8
2017-Dec-03 14:29N 30°53' W 119°21'2115.7
2017-Dec-03 13:09N 30°59' W 118°57'215.2
2017-Dec-03 13:00N 31°00' W 118°55'815.5
2017-Dec-03 12:30N 31°02' W 118°46'815.6
2017-Dec-03 12:00N 31°05' W 118°38'815.7
2017-Dec-03 11:30N 31°10' W 118°31'2416.3
2017-Dec-03 10:01N 31°30' W 118°14'2215.8
2017-Dec-03 08:38N 31°47' W 117°58'516.0
2017-Dec-03 08:20N 31°51' W 117°55'816.1
2017-Dec-03 07:52N 31°57' W 117°50'1116.0
2017-Dec-03 07:09N 32°06' W 117°42'215.6
2017-Dec-03 07:01N 32°08' W 117°40'815.5
2017-Dec-03 06:31N 32°15' W 117°35'714.7
2017-Dec-03 06:00N 32°20' W 117°29'714.6
2017-Dec-03 05:31N 32°26' W 117°24'815.0
2017-Dec-03 05:01N 32°32' W 117°19'815.5
2017-Dec-03 04:30N 32°38' W 117°13'5 8.6
2017-Dec-03 03:54N 32°43' W 117°11'1 0.0
2017-Dec-02 13:55N 32°43' W 117°11'3 6.9
2017-Dec-02 13:29N 32°42' W 117°14'511.4
2017-Dec-02 13:00N 32°36' W 117°13'1016.8
2017-Dec-02 12:24N 32°27' W 117°11'819.5
2017-Dec-02 12:00N 32°19' W 117°08'918.0
2017-Dec-02 11:30N 32°10' W 117°05'1017.4
2017-Dec-02 10:57N 32°01' W 117°03'918.0
2017-Dec-02 10:28N 31°53' W 116°60'918.6
2017-Dec-02 09:58N 31°44' W 116°57'1818.8
2017-Dec-02 09:00N 31°26' W 116°52'18918.9
2017-Dec-01 23:00N 28°24' W 115°54'1313.1 320 / 131014.0 5.4 19.0 20.0
2017-Dec-01 22:00N 28°12' W 115°48'   310 / 141014.0 5.4 19.0 20.0

Dump ship's entire track history